createdAt,value
2023-02-26T00:01:27.402Z,2.47
2023-02-26T00:03:58.371Z,3.28
2023-02-26T00:06:26.988Z,2.22
2023-02-26T00:08:54.575Z,4.53
2023-02-26T00:11:22.480Z,3.15
2023-02-26T00:13:49.475Z,2.28
2023-02-26T00:16:31.085Z,2.38
2023-02-26T00:19:01.778Z,3.67
2023-02-26T00:21:30.141Z,3.45
2023-02-26T00:23:58.242Z,3.25
2023-02-26T00:26:27.607Z,3.67
2023-02-26T00:28:55.532Z,3.15
2023-02-26T00:31:26.228Z,2.63
2023-02-26T00:33:55.527Z,3.17
2023-02-26T00:37:02.912Z,2.55
2023-02-26T00:40:31.604Z,2.47
2023-02-26T00:42:58.383Z,2.55
2023-02-26T00:45:25.394Z,4.53
2023-02-26T00:48:06.994Z,3.55
2023-02-26T00:50:35.155Z,3.40
2023-02-26T00:53:10.378Z,3.90
2023-02-26T00:55:36.870Z,2.55
2023-02-26T00:58:03.408Z,2.20
2023-02-26T01:00:30.279Z,3.47
2023-02-26T01:02:58.464Z,2.60
2023-02-26T01:05:25.644Z,3.40
2023-02-26T01:08:05.337Z,2.75
2023-02-26T01:10:32.469Z,5.00
2023-02-26T01:12:59.349Z,2.42
2023-02-26T01:15:26.333Z,4.63
2023-02-26T01:18:09.926Z,3.45
2023-02-26T01:20:46.508Z,2.20
2023-02-26T01:23:24.283Z,2.28
2023-02-26T01:25:58.281Z,1.60
2023-02-26T01:28:26.505Z,2.95
2023-02-26T01:31:02.472Z,4.15
2023-02-26T01:34:00.878Z,2.50
2023-02-26T01:36:37.425Z,2.20
2023-02-26T01:39:19.484Z,3.92
2023-02-26T01:42:19.808Z,4.00
2023-02-26T01:45:01.251Z,2.78
2023-02-26T01:47:43.051Z,2.63
2023-02-26T01:50:25.722Z,2.53
2023-02-26T01:52:52.137Z,3.95
2023-02-26T01:55:28.624Z,4.90
2023-02-26T01:58:00.979Z,3.83
2023-02-26T02:00:28.933Z,2.40
2023-02-26T02:02:55.701Z,3.38
2023-02-26T02:05:55.344Z,3.35
2023-02-26T02:08:22.628Z,2.08
2023-02-26T02:10:52.870Z,4.07
2023-02-26T02:13:29.091Z,2.33
2023-02-26T02:16:26.749Z,4.20
2023-02-26T02:19:02.177Z,2.58
2023-02-26T02:21:44.148Z,3.15
2023-02-26T02:24:52.721Z,3.22
2023-02-26T02:27:34.074Z,2.65
2023-02-26T02:30:31.964Z,2.40
2023-02-26T02:33:06.400Z,4.35
2023-02-26T02:35:44.660Z,2.00
2023-02-26T02:38:21.512Z,3.50
2023-02-26T02:40:58.295Z,2.78
2023-02-26T02:43:32.388Z,4.10
2023-02-26T02:46:29.442Z,3.60
2023-02-26T02:49:04.848Z,2.97
2023-02-26T02:51:54.275Z,2.47
2023-02-26T02:54:41.873Z,3.58
2023-02-26T02:57:19.939Z,2.00
2023-02-26T02:59:59.258Z,2.83
2023-02-26T03:02:36.758Z,3.03
2023-02-26T03:05:03.597Z,3.33
2023-02-26T03:07:48.433Z,3.22
2023-02-26T03:10:16.709Z,2.72
2023-02-26T03:12:43.221Z,4.78
2023-02-26T03:15:10.968Z,2.10
2023-02-26T03:18:06.367Z,3.63
2023-02-26T03:20:45.080Z,2.20
2023-02-26T03:23:23.355Z,2.55
2023-02-26T03:26:11.990Z,2.58
2023-02-26T03:28:48.429Z,3.80
2023-02-26T03:31:30.679Z,2.40
2023-02-26T03:34:13.691Z,4.25
2023-02-26T03:36:51.520Z,3.35
2023-02-26T03:39:32.012Z,5.53
2023-02-26T03:42:09.767Z,3.70
2023-02-26T03:45:09.366Z,2.90
2023-02-26T03:47:45.630Z,4.20
2023-02-26T03:50:40.006Z,3.50
2023-02-26T03:53:13.502Z,3.83
2023-02-26T03:55:49.200Z,3.40
2023-02-26T03:58:16.417Z,2.93
2023-02-26T04:00:50.157Z,2.83
2023-02-26T04:03:34.460Z,4.25
2023-02-26T04:06:03.559Z,3.78
2023-02-26T04:08:32.446Z,2.75
2023-02-26T04:11:08.904Z,2.83
2023-02-26T04:13:35.394Z,3.85
2023-02-26T04:16:02.230Z,3.58
2023-02-26T04:18:28.731Z,4.05
2023-02-26T04:20:55.178Z,3.75
2023-02-26T04:23:21.797Z,5.00
2023-02-26T04:25:48.354Z,3.38
2023-02-26T04:28:14.929Z,4.07
2023-02-26T04:30:41.816Z,2.88
2023-02-26T04:33:08.300Z,4.68
2023-02-26T04:35:35.137Z,2.88
2023-02-26T04:38:01.589Z,5.10
2023-02-26T04:40:28.076Z,5.32
2023-02-26T04:42:54.574Z,4.13
2023-02-26T04:45:21.090Z,3.13
2023-02-26T04:47:47.567Z,4.72
2023-02-26T04:50:14.581Z,4.35
2023-02-26T04:52:41.098Z,4.43
2023-02-26T04:55:08.547Z,3.40
2023-02-26T04:57:35.142Z,4.00
2023-02-26T05:00:01.690Z,3.25
2023-02-26T05:02:28.226Z,3.30
2023-02-26T05:04:54.690Z,3.33
2023-02-26T05:07:21.150Z,3.47
2023-02-26T05:09:47.599Z,3.95
2023-02-26T05:12:24.123Z,2.90
2023-02-26T05:14:50.667Z,6.40
2023-02-26T05:17:17.142Z,4.13
2023-02-26T05:19:43.584Z,3.38
2023-02-26T05:22:10.096Z,3.85
2023-02-26T05:24:36.648Z,3.55
2023-02-26T05:27:10.662Z,3.38
2023-02-26T05:29:46.104Z,4.25
2023-02-26T05:32:12.548Z,5.35
2023-02-26T05:34:39.067Z,4.38
2023-02-26T05:37:05.567Z,3.33
2023-02-26T05:39:32.171Z,3.33
2023-02-26T05:41:58.993Z,3.65
2023-02-26T05:44:25.546Z,4.40
2023-02-26T05:46:52.116Z,3.50
2023-02-26T05:49:18.589Z,3.38
2023-02-26T05:51:45.239Z,3.17
2023-02-26T05:54:11.822Z,4.55
2023-02-26T05:56:38.316Z,3.60
2023-02-26T05:59:05.098Z,3.05
2023-02-26T06:01:31.646Z,4.45
2023-02-26T06:04:01.128Z,3.10
2023-02-26T06:06:27.835Z,3.35
2023-02-26T06:08:54.551Z,5.13
2023-02-26T06:11:21.110Z,3.83
2023-02-26T06:13:47.648Z,3.30
2023-02-26T06:16:14.267Z,4.95
2023-02-26T06:18:40.811Z,3.30
2023-02-26T06:21:07.557Z,3.72
2023-02-26T06:23:36.940Z,2.75
2023-02-26T06:26:05.045Z,3.53
2023-02-26T06:28:32.708Z,4.30
2023-02-26T06:30:59.218Z,3.55
2023-02-26T06:33:30.879Z,3.28
2023-02-26T06:35:59.253Z,4.15
2023-02-26T06:38:27.075Z,5.53
2023-02-26T06:40:53.650Z,3.80
2023-02-26T06:43:20.496Z,3.13
2023-02-26T06:45:47.425Z,3.97
2023-02-26T06:48:14.046Z,3.70
2023-02-26T06:50:40.549Z,4.60
2023-02-26T06:53:09.343Z,3.33
2023-02-26T06:55:35.829Z,3.90
2023-02-26T06:58:02.326Z,3.45
2023-02-26T07:00:28.821Z,3.67
2023-02-26T07:02:55.480Z,3.35
2023-02-26T07:05:22.249Z,2.97
2023-02-26T07:07:48.752Z,4.35
2023-02-26T07:10:18.299Z,9.80
2023-02-26T07:12:44.858Z,3.22
2023-02-26T07:15:14.633Z,3.10
2023-02-26T07:17:41.171Z,3.10
2023-02-26T07:20:10.221Z,2.97
2023-02-26T07:22:38.248Z,3.47
2023-02-26T07:25:07.126Z,2.67
2023-02-26T07:27:34.024Z,4.00
2023-02-26T07:30:01.330Z,2.78
2023-02-26T07:32:28.197Z,2.95
2023-02-26T07:34:54.696Z,2.85
2023-02-26T07:37:21.264Z,3.30
2023-02-26T07:39:49.577Z,4.43
2023-02-26T07:42:16.478Z,4.50
2023-02-26T07:44:43.352Z,3.13
2023-02-26T07:47:10.942Z,2.80
2023-02-26T07:49:37.484Z,3.35
2023-02-26T07:52:20.509Z,3.22
2023-02-26T07:54:55.926Z,3.58
2023-02-26T07:57:36.785Z,3.05
2023-02-26T08:00:06.497Z,3.53
2023-02-26T08:02:34.131Z,3.50
2023-02-26T08:05:03.624Z,3.10
2023-02-26T08:07:30.133Z,3.28
2023-02-26T08:09:56.653Z,4.28
2023-02-26T08:12:23.120Z,4.25
2023-02-26T08:14:49.602Z,3.55
2023-02-26T08:17:16.134Z,3.25
2023-02-26T08:19:48.304Z,3.22
2023-02-26T08:22:14.733Z,3.25
2023-02-26T08:24:41.431Z,3.45
2023-02-26T08:27:08.074Z,4.05
2023-02-26T08:29:34.581Z,2.97
2023-02-26T08:32:01.100Z,3.55
2023-02-26T08:34:27.663Z,2.83
2023-02-26T08:36:54.183Z,2.50
2023-02-26T08:39:20.666Z,3.10
2023-02-26T08:41:47.137Z,3.35
2023-02-26T08:44:13.624Z,2.63
2023-02-26T08:46:40.312Z,5.93
2023-02-26T08:49:07.370Z,2.97
2023-02-26T08:51:33.850Z,2.45
2023-02-26T08:54:00.426Z,5.82
2023-02-26T08:56:27.284Z,3.13
2023-02-26T08:58:53.923Z,2.50
2023-02-26T09:01:20.401Z,2.60
2023-02-26T09:03:46.941Z,2.58
2023-02-26T09:06:13.464Z,3.15
2023-02-26T09:08:39.986Z,5.43
2023-02-26T09:11:06.577Z,3.03
2023-02-26T09:13:33.091Z,3.35
2023-02-26T09:15:59.585Z,4.00
2023-02-26T09:18:26.181Z,4.28
2023-02-26T09:20:52.702Z,3.30
2023-02-26T09:23:19.234Z,2.58
2023-02-26T09:25:46.135Z,3.10
2023-02-26T09:28:12.749Z,5.22
2023-02-26T09:30:39.335Z,3.65
2023-02-26T09:33:05.892Z,2.47
2023-02-26T09:35:32.430Z,5.32
2023-02-26T09:37:58.991Z,3.05
2023-02-26T09:41:00.273Z,3.50
2023-02-26T09:44:25.548Z,3.60
2023-02-26T09:47:17.734Z,1.90
2023-02-26T09:50:07.190Z,3.47
2023-02-26T09:52:46.911Z,1.95
2023-02-26T09:55:31.331Z,3.22
2023-02-26T09:58:04.969Z,3.72
2023-02-26T10:00:58.589Z,2.00
2023-02-26T10:03:57.330Z,2.70
2023-02-26T10:06:34.901Z,2.00
2023-02-26T10:09:32.776Z,2.38
2023-02-26T10:12:10.551Z,2.13
2023-02-26T10:14:56.678Z,3.38
2023-02-26T10:17:42.180Z,3.88
2023-02-26T10:20:32.533Z,2.53
2023-02-26T10:23:19.941Z,5.72
2023-02-26T10:25:53.899Z,2.42
2023-02-26T10:29:02.622Z,3.13
2023-02-26T10:31:59.384Z,2.10
2023-02-26T10:34:42.056Z,4.10
2023-02-26T10:37:38.865Z,3.70
2023-02-26T10:40:14.446Z,3.20
2023-02-26T10:43:00.845Z,4.28
2023-02-26T10:45:58.507Z,2.30
2023-02-26T10:51:15.635Z,3.20
2023-02-26T10:56:22.470Z,2.25
2023-02-26T10:58:50.709Z,1.60
2023-02-26T11:01:20.785Z,1.77
2023-02-26T11:03:54.473Z,1.88
2023-02-26T11:06:31.548Z,1.73
2023-02-26T11:09:02.352Z,1.85
2023-02-26T11:11:50.879Z,2.38
2023-02-26T11:14:17.757Z,4.20
2023-02-26T11:16:53.477Z,2.42
2023-02-26T11:19:35.477Z,1.70
2023-02-26T11:22:05.352Z,1.02
2023-02-26T11:24:40.385Z,1.60
2023-02-26T11:27:19.723Z,1.80
2023-02-26T11:29:57.140Z,2.78
2023-02-26T11:32:33.125Z,1.83
2023-02-26T11:34:59.701Z,1.42
2023-02-26T11:37:38.908Z,1.33
2023-02-26T11:40:37.946Z,2.25
2023-02-26T11:43:23.587Z,2.75
2023-02-26T11:46:05.517Z,1.85
2023-02-26T11:48:40.895Z,2.67
2023-02-26T11:51:14.260Z,2.65
2023-02-26T11:54:01.365Z,2.92
2023-02-26T11:56:50.871Z,2.85
2023-02-26T11:59:24.285Z,1.98
2023-02-26T12:01:53.477Z,1.90
2023-02-26T12:04:27.936Z,3.00
2023-02-26T12:06:56.290Z,2.20
2023-02-26T12:09:26.387Z,1.90
2023-02-26T12:12:16.232Z,1.90
2023-02-26T12:15:13.981Z,1.40
2023-02-26T12:20:58.141Z,2.45
2023-02-26T12:23:51.876Z,1.52
2023-02-26T12:26:31.718Z,1.15
2023-02-26T12:29:47.190Z,1.40
2023-02-26T12:32:44.463Z,2.22
2023-02-26T12:35:37.778Z,2.10
2023-02-26T12:38:22.766Z,3.55
2023-02-26T12:41:25.087Z,7.07
2023-02-26T12:44:11.312Z,2.33
2023-02-26T12:47:10.909Z,2.88
2023-02-26T12:50:07.044Z,1.40
2023-02-26T12:53:11.322Z,1.92
2023-02-26T12:55:53.234Z,1.77
2023-02-26T12:58:53.727Z,2.80
2023-02-26T13:02:01.409Z,1.95
2023-02-26T13:05:04.574Z,1.60
2023-02-26T13:07:58.659Z,1.63
2023-02-26T13:10:43.195Z,2.00
2023-02-26T13:13:35.814Z,3.08
2023-02-26T13:16:21.646Z,4.75
2023-02-26T13:19:13.371Z,1.77
2023-02-26T13:21:48.754Z,1.67
2023-02-26T13:26:59.057Z,1.38
2023-02-26T13:29:35.653Z,2.08
2023-02-26T13:35:33.344Z,1.65
2023-02-26T13:38:07.281Z,4.93
2023-02-26T13:40:58.335Z,5.80
2023-02-26T13:43:57.552Z,3.40
2023-02-26T13:46:46.420Z,2.22
2023-02-26T13:49:34.535Z,1.77
2023-02-26T13:52:01.385Z,1.48
2023-02-26T13:54:27.902Z,2.47
2023-02-26T13:57:06.941Z,11.85
2023-02-26T13:59:45.287Z,1.70
2023-02-26T14:02:18.071Z,2.10
2023-02-26T14:04:59.574Z,2.35
2023-02-26T14:07:55.881Z,1.70
2023-02-26T14:10:33.202Z,1.95
2023-02-26T14:13:15.258Z,1.67
2023-02-26T14:16:13.274Z,2.60
2023-02-26T14:18:39.685Z,3.00
2023-02-26T14:21:28.090Z,1.50
2023-02-26T14:24:02.086Z,1.33
2023-02-26T14:26:36.802Z,1.55
2023-02-26T14:29:06.400Z,1.83
2023-02-26T14:31:51.129Z,3.20
2023-02-26T14:34:29.753Z,1.70
2023-02-26T14:37:06.946Z,2.20
2023-02-26T14:39:42.993Z,2.08
2023-02-26T14:42:21.406Z,3.22
2023-02-26T14:45:18.712Z,1.42
2023-02-26T14:47:48.484Z,2.05
2023-02-26T14:50:20.990Z,2.72
2023-02-26T14:53:24.089Z,3.40
2023-02-26T14:56:04.615Z,2.22
2023-02-26T14:58:48.840Z,1.52
2023-02-26T15:01:30.363Z,3.40
2023-02-26T15:04:16.964Z,1.50
2023-02-26T15:06:52.476Z,2.35
2023-02-26T15:10:04.213Z,1.33
2023-02-26T15:13:00.169Z,2.72
2023-02-26T15:16:11.856Z,4.60
2023-02-26T15:19:15.532Z,1.55
2023-02-26T15:22:11.956Z,1.60
2023-02-26T15:24:40.562Z,1.42
2023-02-26T15:27:15.243Z,1.88
2023-02-26T15:29:42.807Z,3.85
2023-02-26T15:32:26.465Z,2.28
2023-02-26T15:35:03.395Z,3.53
2023-02-26T15:37:35.385Z,1.25
2023-02-26T15:40:05.759Z,3.17
2023-02-26T15:42:39.051Z,3.20
2023-02-26T15:45:35.814Z,1.67
2023-02-26T15:48:07.986Z,2.00
2023-02-26T15:50:43.334Z,1.88
2023-02-26T15:53:19.295Z,2.80
2023-02-26T15:55:53.589Z,2.85
2023-02-26T15:58:34.080Z,1.85
2023-02-26T16:01:03.040Z,4.80
2023-02-26T16:03:38.491Z,3.75
2023-02-26T16:06:11.237Z,2.13
2023-02-26T16:08:38.928Z,2.00
2023-02-26T16:11:06.190Z,3.40
2023-02-26T16:13:37.730Z,4.07
2023-02-26T16:16:12.654Z,3.55
2023-02-26T16:18:41.403Z,2.70
2023-02-26T16:21:16.797Z,2.50
2023-02-26T16:23:50.946Z,4.00
2023-02-26T16:26:33.567Z,2.65
2023-02-26T16:29:27.822Z,2.97
2023-02-26T16:31:58.667Z,1.90
2023-02-26T16:34:44.159Z,2.00
2023-02-26T16:37:28.713Z,2.20
2023-02-26T16:40:08.959Z,2.97
2023-02-26T16:42:50.863Z,2.47
2023-02-26T16:45:37.585Z,1.90
2023-02-26T16:48:15.531Z,3.42
2023-02-26T16:50:42.680Z,2.22
2023-02-26T16:53:18.688Z,2.28
2023-02-26T16:55:55.529Z,13.85
2023-02-26T16:58:24.718Z,2.78
2023-02-26T17:01:04.376Z,17.42
2023-02-26T17:03:31.223Z,43.03
2023-02-26T17:06:08.150Z,37.70
2023-02-26T17:08:46.079Z,39.00
2023-02-26T17:11:30.584Z,101.25
2023-02-26T17:14:15.393Z,36.75
2023-02-26T17:16:41.939Z,182.52
2023-02-26T17:19:09.394Z,11.23
2023-02-26T17:21:44.384Z,112.13
2023-02-26T17:24:20.423Z,130.38
2023-02-26T17:26:48.227Z,114.88
2023-02-26T17:29:27.616Z,19.08
2023-02-26T17:31:54.164Z,4.43
2023-02-26T17:34:22.181Z,4.10
2023-02-26T17:36:49.753Z,6.05
2023-02-26T17:39:16.529Z,3.55
2023-02-26T17:41:44.868Z,3.13
2023-02-26T17:44:11.685Z,1.95
2023-02-26T17:46:38.315Z,3.63
2023-02-26T17:49:04.975Z,1.80
2023-02-26T17:51:31.585Z,1.83
2023-02-26T17:53:58.407Z,2.08
2023-02-26T17:56:32.662Z,2.42
2023-02-26T17:59:01.046Z,2.67
2023-02-26T18:01:30.747Z,4.10
2023-02-26T18:03:57.819Z,5.28
2023-02-26T18:06:25.313Z,2.20
2023-02-26T18:08:52.213Z,2.83
2023-02-26T18:11:20.318Z,2.47
2023-02-26T18:13:47.387Z,5.90
2023-02-26T18:16:23.002Z,3.20
2023-02-26T18:18:50.665Z,2.47
2023-02-26T18:21:17.210Z,2.28
2023-02-26T18:23:43.706Z,2.95
2023-02-26T18:26:11.390Z,7.28
2023-02-26T18:28:37.948Z,3.72
2023-02-26T18:31:08.655Z,3.60
2023-02-26T18:33:38.490Z,7.20
2023-02-26T18:36:05.989Z,7.20
2023-02-26T18:38:32.691Z,6.05
2023-02-26T18:41:01.814Z,4.60
2023-02-26T18:43:29.380Z,4.90
2023-02-26T18:45:57.160Z,7.70
2023-02-26T18:48:23.772Z,3.55
2023-02-26T18:50:50.395Z,3.38
2023-02-26T18:53:17.587Z,4.13
2023-02-26T18:55:44.777Z,5.97
2023-02-26T18:58:11.610Z,9.98
2023-02-26T19:00:38.137Z,110.88
2023-02-26T19:03:04.687Z,42.70
2023-02-26T19:05:31.340Z,39.13
2023-02-26T19:07:57.988Z,30.98
2023-02-26T19:10:24.620Z,11.45
2023-02-26T19:12:51.203Z,6.78
2023-02-26T19:15:18.422Z,6.28
2023-02-26T19:17:45.214Z,4.60
2023-02-26T19:20:13.514Z,6.00
2023-02-26T19:22:41.783Z,5.72
2023-02-26T19:25:10.053Z,7.47
2023-02-26T19:27:37.951Z,4.85
2023-02-26T19:30:06.454Z,4.25
2023-02-26T19:32:33.434Z,3.40
2023-02-26T19:35:00.202Z,5.30
2023-02-26T19:37:27.017Z,5.55
2023-02-26T19:39:53.491Z,6.90
2023-02-26T19:42:20.308Z,5.55
2023-02-26T19:44:46.814Z,6.78
2023-02-26T19:47:13.353Z,9.35
2023-02-26T19:49:39.859Z,17.73
2023-02-26T19:52:08.132Z,17.17
2023-02-26T19:54:34.639Z,9.50
2023-02-26T19:57:01.242Z,14.63
2023-02-26T19:59:28.114Z,7.95
2023-02-26T20:01:54.760Z,7.43
2023-02-26T20:04:21.425Z,7.65
2023-02-26T20:06:47.947Z,4.25
2023-02-26T20:09:14.615Z,10.23
2023-02-26T20:11:41.271Z,5.03
2023-02-26T20:14:08.045Z,5.30
2023-02-26T20:16:34.787Z,5.38
2023-02-26T20:19:01.719Z,5.45
2023-02-26T20:21:28.587Z,72.70
2023-02-26T20:23:56.672Z,76.00
2023-02-26T20:26:23.916Z,73.72
2023-02-26T20:28:50.408Z,31.55
2023-02-26T20:31:17.313Z,19.52
2023-02-26T20:33:43.956Z,41.22
2023-02-26T20:36:11.162Z,10.93
2023-02-26T20:38:37.963Z,9.77
2023-02-26T20:41:05.143Z,59.83
2023-02-26T20:43:32.683Z,124.03
2023-02-26T20:45:59.317Z,103.50
2023-02-26T20:48:26.419Z,42.67
2023-02-26T20:50:57.902Z,23.63
2023-02-26T20:53:24.410Z,37.88
2023-02-26T20:55:50.952Z,48.38
2023-02-26T20:58:17.433Z,52.90
2023-02-26T21:00:43.979Z,24.48
2023-02-26T21:03:10.650Z,21.92
2023-02-26T21:05:38.441Z,19.60
2023-02-26T21:08:05.649Z,20.55
2023-02-26T21:10:32.731Z,21.33
2023-02-26T21:12:59.748Z,22.08
2023-02-26T21:15:26.543Z,17.50
2023-02-26T21:17:53.811Z,17.40
2023-02-26T21:20:22.063Z,14.88
2023-02-26T21:22:49.570Z,10.02
2023-02-26T21:25:17.015Z,5.22
2023-02-26T21:27:43.937Z,3.30
2023-02-26T21:30:12.858Z,3.25
2023-02-26T21:32:40.471Z,3.05
2023-02-26T21:35:11.944Z,4.28
2023-02-26T21:37:38.971Z,2.38
2023-02-26T21:40:06.574Z,4.25
2023-02-26T21:42:33.396Z,14.52
2023-02-26T21:44:59.894Z,4.35
2023-02-26T21:47:26.454Z,3.88
2023-02-26T21:49:53.594Z,10.52
2023-02-26T21:52:20.111Z,9.00
2023-02-26T21:54:46.607Z,4.55
2023-02-26T21:57:13.074Z,7.72
2023-02-26T21:59:39.580Z,23.73
2023-02-26T22:02:06.162Z,13.57
2023-02-26T22:04:33.790Z,5.75
2023-02-26T22:07:00.623Z,8.32
2023-02-26T22:09:27.330Z,14.63
2023-02-26T22:11:53.837Z,4.13
2023-02-26T22:14:20.373Z,8.20
2023-02-26T22:16:47.199Z,6.18
2023-02-26T22:19:13.742Z,19.88
2023-02-26T22:21:40.269Z,11.95
2023-02-26T22:24:07.477Z,6.38
2023-02-26T22:26:34.129Z,7.70
2023-02-26T22:29:00.940Z,7.35
2023-02-26T22:31:29.640Z,4.68
2023-02-26T22:33:57.316Z,4.18
2023-02-26T22:36:25.556Z,4.90
2023-02-26T22:38:52.108Z,5.03
2023-02-26T22:41:18.848Z,4.95
2023-02-26T22:43:45.292Z,4.70
2023-02-26T22:46:11.907Z,6.13
2023-02-26T22:48:38.428Z,5.68
2023-02-26T22:51:05.255Z,7.70
2023-02-26T22:53:31.823Z,6.50
2023-02-26T22:55:58.444Z,6.47
2023-02-26T22:58:25.000Z,4.65
2023-02-26T23:01:02.557Z,5.88
2023-02-26T23:03:29.532Z,5.80
2023-02-26T23:05:57.285Z,5.43
2023-02-26T23:08:25.645Z,6.03
2023-02-26T23:10:58.331Z,6.15
2023-02-26T23:13:27.084Z,5.85
2023-02-26T23:15:53.620Z,8.13
2023-02-26T23:18:20.108Z,6.07
2023-02-26T23:20:48.418Z,6.68
2023-02-26T23:23:16.214Z,9.65
2023-02-26T23:25:43.925Z,4.78
2023-02-26T23:28:11.854Z,5.45
2023-02-26T23:30:39.437Z,4.95
2023-02-26T23:33:07.171Z,3.95
2023-02-26T23:35:44.860Z,6.20
2023-02-26T23:38:11.740Z,6.10
2023-02-26T23:40:38.220Z,6.10
2023-02-26T23:43:04.732Z,5.93
2023-02-26T23:45:31.326Z,8.40
2023-02-26T23:47:57.809Z,7.15
2023-02-26T23:50:24.360Z,6.70
2023-02-26T23:52:50.996Z,6.35
2023-02-26T23:55:23.148Z,7.00
2023-02-26T23:57:52.237Z,6.60
